sensor_id;sensor_type;location;lat;lon;timestamp;pressure;altitude;pressure_sealevel;temperature;humidity
33697;BME280;20031;43.416;23.232;2024-01-16T00:01:17;98561.44;;;1.52;90.01
33697;BME280;20031;43.416;23.232;2024-01-16T00:03:43;98564.16;;;1.51;90.46
33697;BME280;20031;43.416;23.232;2024-01-16T00:06:09;98569.00;;;1.54;90.38
33697;BME280;20031;43.416;23.232;2024-01-16T00:08:35;98562.94;;;1.55;90.60
33697;BME280;20031;43.416;23.232;2024-01-16T00:11:02;98571.44;;;1.55;90.37
33697;BME280;20031;43.416;23.232;2024-01-16T00:13:28;98575.63;;;1.56;90.64
33697;BME280;20031;43.416;23.232;2024-01-16T00:15:53;98579.94;;;1.56;90.26
33697;BME280;20031;43.416;23.232;2024-01-16T00:18:18;98587.50;;;1.57;90.52
33697;BME280;20031;43.416;23.232;2024-01-16T00:20:44;98582.75;;;1.62;90.44
33697;BME280;20031;43.416;23.232;2024-01-16T00:23:09;98597.34;;;1.62;90.67
33697;BME280;20031;43.416;23.232;2024-01-16T00:25:35;98592.06;;;1.63;90.49
33697;BME280;20031;43.416;23.232;2024-01-16T00:28:01;98594.63;;;1.63;90.46
33697;BME280;20031;43.416;23.232;2024-01-16T00:30:27;98608.13;;;1.65;90.17
33697;BME280;20031;43.416;23.232;2024-01-16T00:32:52;98615.97;;;1.64;90.40
33697;BME280;20031;43.416;23.232;2024-01-16T00:35:18;98631.47;;;1.62;90.00
33697;BME280;20031;43.416;23.232;2024-01-16T00:37:44;98631.34;;;1.64;90.52
33697;BME280;20031;43.416;23.232;2024-01-16T00:40:09;98644.31;;;1.62;89.99
33697;BME280;20031;43.416;23.232;2024-01-16T00:42:35;98663.75;;;1.65;90.33
33697;BME280;20031;43.416;23.232;2024-01-16T00:45:00;98676.72;;;1.63;90.53
33697;BME280;20031;43.416;23.232;2024-01-16T00:47:26;98692.91;;;1.64;90.10
33697;BME280;20031;43.416;23.232;2024-01-16T00:49:52;98711.41;;;1.67;90.65
33697;BME280;20031;43.416;23.232;2024-01-16T00:52:18;98723.28;;;1.68;90.46
33697;BME280;20031;43.416;23.232;2024-01-16T00:54:43;98728.28;;;1.70;90.97
33697;BME280;20031;43.416;23.232;2024-01-16T00:57:09;98742.31;;;1.75;91.07
33697;BME280;20031;43.416;23.232;2024-01-16T00:59:34;98740.44;;;1.77;90.68
33697;BME280;20031;43.416;23.232;2024-01-16T01:02:00;98752.03;;;1.81;90.50
33697;BME280;20031;43.416;23.232;2024-01-16T01:04:25;98765.69;;;1.82;91.07
33697;BME280;20031;43.416;23.232;2024-01-16T01:06:51;98766.63;;;1.81;91.24
33697;BME280;20031;43.416;23.232;2024-01-16T01:09:17;98779.03;;;1.85;90.80
33697;BME280;20031;43.416;23.232;2024-01-16T01:11:42;98777.31;;;1.86;91.19
33697;BME280;20031;43.416;23.232;2024-01-16T01:14:08;98787.56;;;1.86;91.36
33697;BME280;20031;43.416;23.232;2024-01-16T01:16:34;98781.34;;;1.88;90.75
33697;BME280;20031;43.416;23.232;2024-01-16T01:18:59;98786.34;;;1.90;90.97
33697;BME280;20031;43.416;23.232;2024-01-16T01:21:25;98790.66;;;1.89;90.87
33697;BME280;20031;43.416;23.232;2024-01-16T01:23:50;98787.03;;;1.92;91.07
33697;BME280;20031;43.416;23.232;2024-01-16T01:26:16;98780.94;;;1.93;91.54
33697;BME280;20031;43.416;23.232;2024-01-16T01:28:43;98796.06;;;1.96;91.18
33697;BME280;20031;43.416;23.232;2024-01-16T01:31:10;98796.59;;;1.99;91.20
33697;BME280;20031;43.416;23.232;2024-01-16T01:33:36;98803.88;;;2.03;91.59
33697;BME280;20031;43.416;23.232;2024-01-16T01:36:01;98807.81;;;2.07;91.15
33697;BME280;20031;43.416;23.232;2024-01-16T01:38:27;98819.97;;;2.15;91.46
33697;BME280;20031;43.416;23.232;2024-01-16T01:40:52;98827.25;;;2.19;91.69
33697;BME280;20031;43.416;23.232;2024-01-16T01:43:24;98842.13;;;2.25;91.91
33697;BME280;20031;43.416;23.232;2024-01-16T01:48:41;98855.78;;;2.35;91.88
33697;BME280;20031;43.416;23.232;2024-01-16T01:51:07;98867.50;;;2.38;91.36
33697;BME280;20031;43.416;23.232;2024-01-16T01:53:33;98870.63;;;2.41;91.30
33697;BME280;20031;43.416;23.232;2024-01-16T01:56:03;98884.00;;;2.45;91.83
33697;BME280;20031;43.416;23.232;2024-01-16T01:58:29;98876.03;;;2.48;91.65
33697;BME280;20031;43.416;23.232;2024-01-16T02:00:55;98879.41;;;2.48;91.74
33697;BME280;20031;43.416;23.232;2024-01-16T02:03:22;98878.06;;;2.44;91.60
33697;BME280;20031;43.416;23.232;2024-01-16T02:05:49;98884.69;;;2.47;91.77
33697;BME280;20031;43.416;23.232;2024-01-16T02:08:15;98894.00;;;2.48;91.77
33697;BME280;20031;43.416;23.232;2024-01-16T02:10:43;98897.69;;;2.45;91.75
33697;BME280;20031;43.416;23.232;2024-01-16T02:13:11;98896.84;;;2.45;91.74
33697;BME280;20031;43.416;23.232;2024-01-16T02:15:36;98904.56;;;2.45;91.74
33697;BME280;20031;43.416;23.232;2024-01-16T02:18:04;98909.53;;;2.46;92.18
33697;BME280;20031;43.416;23.232;2024-01-16T02:20:31;98911.03;;;2.49;92.27
33697;BME280;20031;43.416;23.232;2024-01-16T02:23:00;98926.88;;;2.53;92.13
33697;BME280;20031;43.416;23.232;2024-01-16T02:25:29;98926.59;;;2.56;92.11
33697;BME280;20031;43.416;23.232;2024-01-16T02:27:54;98914.13;;;2.61;92.30
33697;BME280;20031;43.416;23.232;2024-01-16T02:30:20;98934.28;;;2.66;92.35
33697;BME280;20031;43.416;23.232;2024-01-16T02:32:45;98939.28;;;2.67;92.70
33697;BME280;20031;43.416;23.232;2024-01-16T02:35:10;98932.00;;;2.72;92.44
33697;BME280;20031;43.416;23.232;2024-01-16T02:37:36;98952.00;;;2.78;92.72
33697;BME280;20031;43.416;23.232;2024-01-16T02:40:01;98943.06;;;2.82;92.68
33697;BME280;20031;43.416;23.232;2024-01-16T02:42:32;98956.03;;;2.90;92.75
33697;BME280;20031;43.416;23.232;2024-01-16T02:44:57;98954.00;;;2.94;93.15
33697;BME280;20031;43.416;23.232;2024-01-16T02:47:23;98948.72;;;3.04;93.27
33697;BME280;20031;43.416;23.232;2024-01-16T02:49:48;98954.38;;;3.08;92.85
33697;BME280;20031;43.416;23.232;2024-01-16T02:52:14;98952.59;;;3.18;92.58
33697;BME280;20031;43.416;23.232;2024-01-16T02:54:40;98950.81;;;3.28;92.83
33697;BME280;20031;43.416;23.232;2024-01-16T02:57:05;98960.53;;;3.34;92.97
33697;BME280;20031;43.416;23.232;2024-01-16T02:59:31;98966.31;;;3.45;92.81
33697;BME280;20031;43.416;23.232;2024-01-16T03:01:56;98964.50;;;3.55;92.32
33697;BME280;20031;43.416;23.232;2024-01-16T03:04:22;98966.91;;;3.66;91.29
33697;BME280;20031;43.416;23.232;2024-01-16T03:06:47;98976.34;;;3.75;91.05
33697;BME280;20031;43.416;23.232;2024-01-16T03:09:13;98989.34;;;3.83;90.11
33697;BME280;20031;43.416;23.232;2024-01-16T03:11:38;98987.97;;;3.88;89.44
33697;BME280;20031;43.416;23.232;2024-01-16T03:14:05;99004.72;;;3.92;88.39
33697;BME280;20031;43.416;23.232;2024-01-16T03:16:31;99008.63;;;3.96;87.52
33697;BME280;20031;43.416;23.232;2024-01-16T03:18:57;99024.34;;;4.03;87.18
33697;BME280;20031;43.416;23.232;2024-01-16T03:21:22;99021.03;;;4.10;86.31
33697;BME280;20031;43.416;23.232;2024-01-16T03:23:48;99014.72;;;4.22;84.71
33697;BME280;20031;43.416;23.232;2024-01-16T03:26:14;99016.22;;;4.24;83.78
33697;BME280;20031;43.416;23.232;2024-01-16T03:28:40;99028.94;;;4.26;82.56
33697;BME280;20031;43.416;23.232;2024-01-16T03:31:05;99028.16;;;4.25;81.57
33697;BME280;20031;43.416;23.232;2024-01-16T03:33:31;99048.63;;;4.27;80.82
33697;BME280;20031;43.416;23.232;2024-01-16T03:35:56;99043.97;;;4.30;80.79
33697;BME280;20031;43.416;23.232;2024-01-16T03:38:22;99047.22;;;4.32;80.00
33697;BME280;20031;43.416;23.232;2024-01-16T03:40:47;99041.53;;;4.29;79.12
33697;BME280;20031;43.416;23.232;2024-01-16T03:43:13;99052.00;;;4.27;79.46
33697;BME280;20031;43.416;23.232;2024-01-16T03:45:39;99067.31;;;4.29;79.03
33697;BME280;20031;43.416;23.232;2024-01-16T03:48:04;99064.06;;;4.27;78.41
33697;BME280;20031;43.416;23.232;2024-01-16T03:50:30;99085.03;;;4.41;77.79
33697;BME280;20031;43.416;23.232;2024-01-16T03:52:55;99089.09;;;4.44;77.37
33697;BME280;20031;43.416;23.232;2024-01-16T03:55:21;99094.75;;;4.47;76.64
33697;BME280;20031;43.416;23.232;2024-01-16T03:57:46;99096.75;;;4.53;76.21
33697;BME280;20031;43.416;23.232;2024-01-16T04:00:12;99098.22;;;4.55;75.88
33697;BME280;20031;43.416;23.232;2024-01-16T04:02:39;99104.06;;;4.57;74.93
33697;BME280;20031;43.416;23.232;2024-01-16T04:05:04;99107.75;;;4.55;74.95
33697;BME280;20031;43.416;23.232;2024-01-16T04:07:30;99103.38;;;4.55;74.35
33697;BME280;20031;43.416;23.232;2024-01-16T04:09:56;99113.56;;;4.57;73.65
33697;BME280;20031;43.416;23.232;2024-01-16T04:12:21;99122.13;;;4.57;72.73
33697;BME280;20031;43.416;23.232;2024-01-16T04:14:47;99126.72;;;4.54;72.55
33697;BME280;20031;43.416;23.232;2024-01-16T04:17:12;99152.06;;;4.58;71.68
33697;BME280;20031;43.416;23.232;2024-01-16T04:19:38;99153.56;;;4.61;70.60
33697;BME280;20031;43.416;23.232;2024-01-16T04:22:04;99153.41;;;4.62;69.91
33697;BME280;20031;43.416;23.232;2024-01-16T04:24:30;99160.56;;;4.68;69.06
33697;BME280;20031;43.416;23.232;2024-01-16T04:26:56;99157.69;;;4.71;67.74
33697;BME280;20031;43.416;23.232;2024-01-16T04:29:21;99166.94;;;4.74;66.67
33697;BME280;20031;43.416;23.232;2024-01-16T04:31:47;99176.72;;;4.70;66.38
33697;BME280;20031;43.416;23.232;2024-01-16T04:34:13;99185.25;;;4.71;65.76
33697;BME280;20031;43.416;23.232;2024-01-16T04:36:38;99190.41;;;4.71;64.65
33697;BME280;20031;43.416;23.232;2024-01-16T04:39:03;99183.13;;;4.66;63.94
33697;BME280;20031;43.416;23.232;2024-01-16T04:41:29;99206.19;;;4.68;63.62
33697;BME280;20031;43.416;23.232;2024-01-16T04:43:54;99207.81;;;4.69;62.72
33697;BME280;20031;43.416;23.232;2024-01-16T04:46:20;99215.28;;;4.62;62.58
33697;BME280;20031;43.416;23.232;2024-01-16T04:48:45;99213.50;;;4.63;62.25
33697;BME280;20031;43.416;23.232;2024-01-16T04:51:11;99216.38;;;4.60;61.55
33697;BME280;20031;43.416;23.232;2024-01-16T04:53:36;99217.50;;;4.57;61.17
33697;BME280;20031;43.416;23.232;2024-01-16T04:56:02;99218.97;;;4.60;60.68
33697;BME280;20031;43.416;23.232;2024-01-16T04:58:27;99237.56;;;4.63;60.06
33697;BME280;20031;43.416;23.232;2024-01-16T05:00:53;99238.34;;;4.64;59.67
33697;BME280;20031;43.416;23.232;2024-01-16T05:03:18;99245.28;;;4.63;58.98
33697;BME280;20031;43.416;23.232;2024-01-16T05:05:44;99264.41;;;4.61;58.73
33697;BME280;20031;43.416;23.232;2024-01-16T05:08:09;99258.56;;;4.68;57.83
33697;BME280;20031;43.416;23.232;2024-01-16T05:10:35;99258.56;;;4.68;58.08
33697;BME280;20031;43.416;23.232;2024-01-16T05:13:00;99275.38;;;4.72;56.97
33697;BME280;20031;43.416;23.232;2024-01-16T05:15:26;99269.94;;;4.75;56.98
33697;BME280;20031;43.416;23.232;2024-01-16T05:17:51;99285.13;;;4.78;56.16
33697;BME280;20031;43.416;23.232;2024-01-16T05:20:18;99297.19;;;4.87;55.63
33697;BME280;20031;43.416;23.232;2024-01-16T05:22:44;99292.28;;;4.84;55.36
33697;BME280;20031;43.416;23.232;2024-01-16T05:25:09;99296.78;;;4.82;55.16
33697;BME280;20031;43.416;23.232;2024-01-16T05:27:35;99304.66;;;4.81;55.50
33697;BME280;20031;43.416;23.232;2024-01-16T05:30:00;99294.78;;;4.76;55.17
33697;BME280;20031;43.416;23.232;2024-01-16T05:32:26;99294.19;;;4.82;54.50
33697;BME280;20031;43.416;23.232;2024-01-16T05:34:52;99307.38;;;4.79;54.41
33697;BME280;20031;43.416;23.232;2024-01-16T05:37:19;99307.94;;;4.73;54.80
33697;BME280;20031;43.416;23.232;2024-01-16T05:39:44;99313.38;;;4.70;55.03
33697;BME280;20031;43.416;23.232;2024-01-16T05:42:11;99329.16;;;4.67;55.07
33697;BME280;20031;43.416;23.232;2024-01-16T05:44:37;99325.03;;;4.74;55.10
33697;BME280;20031;43.416;23.232;2024-01-16T05:47:03;99332.09;;;4.72;54.11
33697;BME280;20031;43.416;23.232;2024-01-16T05:49:28;99324.50;;;4.71;53.93
33697;BME280;20031;43.416;23.232;2024-01-16T05:51:54;99340.91;;;4.70;54.31
33697;BME280;20031;43.416;23.232;2024-01-16T05:54:19;99349.88;;;4.66;54.51
33697;BME280;20031;43.416;23.232;2024-01-16T05:56:45;99350.72;;;4.66;54.00
33697;BME280;20031;43.416;23.232;2024-01-16T05:59:10;99366.19;;;4.66;54.81
33697;BME280;20031;43.416;23.232;2024-01-16T06:01:35;99360.59;;;4.61;53.89
33697;BME280;20031;43.416;23.232;2024-01-16T06:04:01;99369.84;;;4.73;54.26
33697;BME280;20031;43.416;23.232;2024-01-16T06:06:26;99371.44;;;4.74;53.68
33697;BME280;20031;43.416;23.232;2024-01-16T06:08:52;99373.50;;;4.71;53.79
33697;BME280;20031;43.416;23.232;2024-01-16T06:11:17;99372.84;;;4.69;54.09
33697;BME280;20031;43.416;23.232;2024-01-16T06:13:44;99372.28;;;4.65;54.21
33697;BME280;20031;43.416;23.232;2024-01-16T06:16:10;99388.97;;;4.61;54.25
33697;BME280;20031;43.416;23.232;2024-01-16T06:18:35;99396.19;;;4.58;54.92
33697;BME280;20031;43.416;23.232;2024-01-16T06:21:02;99412.19;;;4.61;54.39
33697;BME280;20031;43.416;23.232;2024-01-16T06:23:28;99416.66;;;4.59;55.07
33697;BME280;20031;43.416;23.232;2024-01-16T06:25:54;99435.09;;;4.64;54.52
33697;BME280;20031;43.416;23.232;2024-01-16T06:28:19;99442.69;;;4.66;54.75
33697;BME280;20031;43.416;23.232;2024-01-16T06:30:45;99460.38;;;4.70;54.69
33697;BME280;20031;43.416;23.232;2024-01-16T06:33:10;99474.47;;;4.66;54.84
33697;BME280;20031;43.416;23.232;2024-01-16T06:35:35;99482.22;;;4.66;54.56
33697;BME280;20031;43.416;23.232;2024-01-16T06:38:01;99489.41;;;4.72;54.23
33697;BME280;20031;43.416;23.232;2024-01-16T06:40:27;99501.50;;;4.72;54.06
33697;BME280;20031;43.416;23.232;2024-01-16T06:42:52;99504.22;;;4.70;54.16
33697;BME280;20031;43.416;23.232;2024-01-16T06:45:17;99510.31;;;4.79;54.08
33697;BME280;20031;43.416;23.232;2024-01-16T06:47:44;99502.16;;;4.74;53.90
33697;BME280;20031;43.416;23.232;2024-01-16T06:50:10;99509.75;;;4.75;53.81
33697;BME280;20031;43.416;23.232;2024-01-16T06:52:35;99531.31;;;4.74;53.83
33697;BME280;20031;43.416;23.232;2024-01-16T06:55:00;99526.72;;;4.78;53.72
33697;BME280;20031;43.416;23.232;2024-01-16T06:57:26;99540.69;;;4.75;53.83
33697;BME280;20031;43.416;23.232;2024-01-16T06:59:52;99534.59;;;4.76;53.54
33697;BME280;20031;43.416;23.232;2024-01-16T07:02:18;99536.25;;;4.77;53.22
33697;BME280;20031;43.416;23.232;2024-01-16T07:04:43;99545.44;;;4.80;53.71
33697;BME280;20031;43.416;23.232;2024-01-16T07:07:08;99546.94;;;4.82;53.25
33697;BME280;20031;43.416;23.232;2024-01-16T07:09:34;99550.91;;;4.86;53.32
33697;BME280;20031;43.416;23.232;2024-01-16T07:11:59;99555.78;;;4.89;52.89
33697;BME280;20031;43.416;23.232;2024-01-16T07:14:25;99565.03;;;4.92;53.17
33697;BME280;20031;43.416;23.232;2024-01-16T07:16:50;99570.72;;;4.95;52.60
33697;BME280;20031;43.416;23.232;2024-01-16T07:19:16;99579.41;;;4.94;52.14
33697;BME280;20031;43.416;23.232;2024-01-16T07:21:41;99583.47;;;4.97;52.50
33697;BME280;20031;43.416;23.232;2024-01-16T07:24:07;99578.19;;;4.98;52.04
33697;BME280;20031;43.416;23.232;2024-01-16T07:26:33;99590.28;;;4.98;52.15
33697;BME280;20031;43.416;23.232;2024-01-16T07:28:59;99588.78;;;4.95;52.13
33697;BME280;20031;43.416;23.232;2024-01-16T07:31:25;99591.34;;;4.95;52.09
33697;BME280;20031;43.416;23.232;2024-01-16T07:33:51;99602.63;;;4.94;52.21
33697;BME280;20031;43.416;23.232;2024-01-16T07:36:16;99610.22;;;4.96;51.83
33697;BME280;20031;43.416;23.232;2024-01-16T07:38:42;99610.22;;;4.96;51.43
33697;BME280;20031;43.416;23.232;2024-01-16T07:41:07;99620.44;;;4.97;51.71
33697;BME280;20031;43.416;23.232;2024-01-16T07:43:33;99634.28;;;4.96;52.18
33697;BME280;20031;43.416;23.232;2024-01-16T07:45:59;99646.91;;;4.99;52.37
33697;BME280;20031;43.416;23.232;2024-01-16T07:48:25;99655.31;;;5.01;51.71
33697;BME280;20031;43.416;23.232;2024-01-16T07:50:50;99675.28;;;4.99;51.77
33697;BME280;20031;43.416;23.232;2024-01-16T07:53:16;99676.22;;;4.98;52.14
33697;BME280;20031;43.416;23.232;2024-01-16T07:55:42;99677.28;;;4.96;52.34
33697;BME280;20031;43.416;23.232;2024-01-16T07:58:10;99687.50;;;4.97;52.27
33697;BME280;20031;43.416;23.232;2024-01-16T08:00:36;99697.13;;;4.95;52.30
33697;BME280;20031;43.416;23.232;2024-01-16T08:03:02;99701.22;;;4.98;51.97
33697;BME280;20031;43.416;23.232;2024-01-16T08:05:28;99694.72;;;5.03;52.09
33697;BME280;20031;43.416;23.232;2024-01-16T08:07:55;99707.06;;;5.09;51.94
33697;BME280;20031;43.416;23.232;2024-01-16T08:10:21;99714.41;;;5.13;52.00
33697;BME280;20031;43.416;23.232;2024-01-16T08:12:46;99729.09;;;5.13;51.72
33697;BME280;20031;43.416;23.232;2024-01-16T08:15:12;99732.22;;;5.16;52.42
33697;BME280;20031;43.416;23.232;2024-01-16T08:17:37;99718.63;;;5.24;52.06
33697;BME280;20031;43.416;23.232;2024-01-16T08:20:03;99724.09;;;5.30;52.32
33697;BME280;20031;43.416;23.232;2024-01-16T08:22:28;99723.56;;;5.36;52.52
33697;BME280;20031;43.416;23.232;2024-01-16T08:24:54;99718.69;;;5.43;52.38
33697;BME280;20031;43.416;23.232;2024-01-16T08:27:19;99715.81;;;5.55;52.16
33697;BME280;20031;43.416;23.232;2024-01-16T08:29:45;99726.81;;;5.66;52.18
33697;BME280;20031;43.416;23.232;2024-01-16T08:32:10;99727.44;;;5.79;52.27
33697;BME280;20031;43.416;23.232;2024-01-16T08:34:36;99736.50;;;5.83;52.04
33697;BME280;20031;43.416;23.232;2024-01-16T08:37:01;99737.22;;;5.85;51.93
33697;BME280;20031;43.416;23.232;2024-01-16T08:39:27;99740.75;;;5.84;51.90
33697;BME280;20031;43.416;23.232;2024-01-16T08:41:53;99755.31;;;5.85;51.58
33697;BME280;20031;43.416;23.232;2024-01-16T08:44:18;99750.41;;;5.82;51.76
33697;BME280;20031;43.416;23.232;2024-01-16T08:46:44;99760.75;;;5.82;52.03
33697;BME280;20031;43.416;23.232;2024-01-16T08:49:09;99774.31;;;5.84;52.33
33697;BME280;20031;43.416;23.232;2024-01-16T08:51:36;99776.63;;;5.87;52.48
33697;BME280;20031;43.416;23.232;2024-01-16T08:54:02;99763.03;;;5.95;52.27
33697;BME280;20031;43.416;23.232;2024-01-16T08:56:28;99766.19;;;5.98;52.07
33697;BME280;20031;43.416;23.232;2024-01-16T08:58:53;99771.06;;;6.01;52.23
33697;BME280;20031;43.416;23.232;2024-01-16T09:01:18;99770.13;;;6.02;52.13
33697;BME280;20031;43.416;23.232;2024-01-16T09:03:46;99771.63;;;5.95;51.42
33697;BME280;20031;43.416;23.232;2024-01-16T09:06:12;99768.75;;;5.89;51.41
33697;BME280;20031;43.416;23.232;2024-01-16T09:08:38;99787.38;;;5.83;51.63
33697;BME280;20031;43.416;23.232;2024-01-16T09:11:03;99789.00;;;5.74;51.90
33697;BME280;20031;43.416;23.232;2024-01-16T09:13:28;99784.88;;;5.72;52.56
33697;BME280;20031;43.416;23.232;2024-01-16T09:15:54;99794.41;;;5.71;52.38
33697;BME280;20031;43.416;23.232;2024-01-16T09:18:19;99796.31;;;5.69;52.67
33697;BME280;20031;43.416;23.232;2024-01-16T09:20:45;99797.94;;;5.70;53.23
33697;BME280;20031;43.416;23.232;2024-01-16T09:23:10;99794.59;;;5.79;53.27
33697;BME280;20031;43.416;23.232;2024-01-16T09:25:36;99790.78;;;5.93;53.24
33697;BME280;20031;43.416;23.232;2024-01-16T09:28:02;99787.91;;;6.14;53.36
33697;BME280;20031;43.416;23.232;2024-01-16T09:30:28;99789.41;;;6.26;52.74
33697;BME280;20031;43.416;23.232;2024-01-16T09:32:53;99796.06;;;6.38;52.85
33697;BME280;20031;43.416;23.232;2024-01-16T09:35:19;99796.16;;;6.56;51.93
33697;BME280;20031;43.416;23.232;2024-01-16T09:37:44;99796.00;;;6.57;51.76
33697;BME280;20031;43.416;23.232;2024-01-16T09:40:10;99790.69;;;6.58;51.35
33697;BME280;20031;43.416;23.232;2024-01-16T09:42:36;99793.28;;;6.58;51.71
33697;BME280;20031;43.416;23.232;2024-01-16T09:45:01;99791.41;;;6.51;51.56
33697;BME280;20031;43.416;23.232;2024-01-16T09:47:30;99790.22;;;6.36;50.54
33697;BME280;20031;43.416;23.232;2024-01-16T09:50:02;99788.84;;;6.23;50.27
33697;BME280;20031;43.416;23.232;2024-01-16T09:52:28;99800.16;;;6.12;50.87
33697;BME280;20031;43.416;23.232;2024-01-16T09:54:54;99805.88;;;6.07;51.03
33697;BME280;20031;43.416;23.232;2024-01-16T09:57:19;99805.59;;;6.00;50.75
33697;BME280;20031;43.416;23.232;2024-01-16T09:59:48;99811.03;;;5.97;51.65
33697;BME280;20031;43.416;23.232;2024-01-16T10:02:14;99814.19;;;6.01;51.80
33697;BME280;20031;43.416;23.232;2024-01-16T10:04:41;99824.94;;;6.06;52.34
33697;BME280;20031;43.416;23.232;2024-01-16T10:07:07;99825.72;;;6.06;52.97
33697;BME280;20031;43.416;23.232;2024-01-16T10:09:35;99827.09;;;6.10;52.93
33697;BME280;20031;43.416;23.232;2024-01-16T10:12:01;99817.19;;;6.15;53.31
33697;BME280;20031;43.416;23.232;2024-01-16T10:14:26;99814.72;;;6.23;53.15
33697;BME280;20031;43.416;23.232;2024-01-16T10:17:00;99808.03;;;6.30;53.43
33697;BME280;20031;43.416;23.232;2024-01-16T10:19:50;99825.34;;;6.29;52.47
33697;BME280;20031;43.416;23.232;2024-01-16T10:22:23;99822.47;;;6.23;51.81
33697;BME280;20031;43.416;23.232;2024-01-16T10:25:10;99802.34;;;6.17;52.13
33697;BME280;20031;43.416;23.232;2024-01-16T10:27:42;99825.75;;;6.15;52.48
33697;BME280;20031;43.416;23.232;2024-01-16T10:30:08;99825.59;;;6.17;52.68
33697;BME280;20031;43.416;23.232;2024-01-16T10:32:39;99834.72;;;6.21;53.40
33697;BME280;20031;43.416;23.232;2024-01-16T10:35:06;99833.50;;;6.25;53.60
33697;BME280;20031;43.416;23.232;2024-01-16T10:40:15;99838.97;;;6.22;53.56
33697;BME280;20031;43.416;23.232;2024-01-16T10:42:42;99830.78;;;6.17;54.02
33697;BME280;20031;43.416;23.232;2024-01-16T10:45:07;99833.38;;;6.17;54.31
33697;BME280;20031;43.416;23.232;2024-01-16T10:47:33;99839.50;;;6.25;54.88
33697;BME280;20031;43.416;23.232;2024-01-16T10:50:04;99839.78;;;6.32;54.65
33697;BME280;20031;43.416;23.232;2024-01-16T10:52:33;99831.31;;;6.30;54.70
33697;BME280;20031;43.416;23.232;2024-01-16T10:55:00;99831.31;;;6.30;54.38
33697;BME280;20031;43.416;23.232;2024-01-16T10:57:31;99830.38;;;6.31;53.58
33697;BME280;20031;43.416;23.232;2024-01-16T11:00:04;99847.81;;;6.29;52.99
33697;BME280;20031;43.416;23.232;2024-01-16T11:02:54;99849.28;;;6.31;53.08
33697;BME280;20031;43.416;23.232;2024-01-16T11:05:23;99843.69;;;6.36;52.69
33697;BME280;20031;43.416;23.232;2024-01-16T11:07:51;99851.16;;;6.39;53.29
33697;BME280;20031;43.416;23.232;2024-01-16T11:10:20;99849.28;;;6.41;53.33
33697;BME280;20031;43.416;23.232;2024-01-16T11:12:46;99853.38;;;6.34;53.44
33697;BME280;20031;43.416;23.232;2024-01-16T11:15:12;99855.94;;;6.24;53.83
33697;BME280;20031;43.416;23.232;2024-01-16T11:17:38;99859.09;;;6.28;54.01
33697;BME280;20031;43.416;23.232;2024-01-16T11:20:05;99869.16;;;6.21;54.27
33697;BME280;20031;43.416;23.232;2024-01-16T11:22:43;99873.78;;;6.18;54.33
33697;BME280;20031;43.416;23.232;2024-01-16T11:27:36;99876.63;;;6.34;54.88
33697;BME280;20031;43.416;23.232;2024-01-16T11:30:02;99874.72;;;6.36;55.17
33697;BME280;20031;43.416;23.232;2024-01-16T11:32:39;99882.63;;;6.25;54.72
33697;BME280;20031;43.416;23.232;2024-01-16T11:35:09;99882.47;;;6.17;55.03
33697;BME280;20031;43.416;23.232;2024-01-16T11:37:36;99892.97;;;6.15;55.18
33697;BME280;20031;43.416;23.232;2024-01-16T11:40:21;99872.13;;;6.17;55.00
33697;BME280;20031;43.416;23.232;2024-01-16T11:42:48;99884.53;;;6.23;55.27
33697;BME280;20031;43.416;23.232;2024-01-16T11:48:10;99886.28;;;6.22;55.17
33697;BME280;20031;43.416;23.232;2024-01-16T11:50:36;99885.88;;;6.17;54.93
33697;BME280;20031;43.416;23.232;2024-01-16T11:53:02;99893.50;;;6.09;54.37
33697;BME280;20031;43.416;23.232;2024-01-16T11:55:31;99899.88;;;6.06;54.04
33697;BME280;20031;43.416;23.232;2024-01-16T12:00:45;99897.28;;;5.96;53.44
33697;BME280;20031;43.416;23.232;2024-01-16T12:03:13;99899.19;;;5.94;53.90
33697;BME280;20031;43.416;23.232;2024-01-16T12:05:42;99910.88;;;5.89;54.01
33697;BME280;20031;43.416;23.232;2024-01-16T12:08:09;99915.22;;;5.88;54.19
33697;BME280;20031;43.416;23.232;2024-01-16T12:10:45;99908.94;;;5.81;54.39
33697;BME280;20031;43.416;23.232;2024-01-16T12:13:12;99904.56;;;5.72;54.19
33697;BME280;20031;43.416;23.232;2024-01-16T12:15:37;99900.59;;;5.68;54.49
33697;BME280;20031;43.416;23.232;2024-01-16T12:18:03;99898.56;;;5.72;54.73
33697;BME280;20031;43.416;23.232;2024-01-16T12:20:33;99902.44;;;5.87;54.59
33697;BME280;20031;43.416;23.232;2024-01-16T12:23:00;99887.78;;;5.97;54.36
33697;BME280;20031;43.416;23.232;2024-01-16T12:25:27;99893.06;;;6.05;53.32
33697;BME280;20031;43.416;23.232;2024-01-16T12:27:57;99887.53;;;6.09;52.55
33697;BME280;20031;43.416;23.232;2024-01-16T12:30:27;99879.63;;;6.10;51.85
33697;BME280;20031;43.416;23.232;2024-01-16T12:33:06;99885.63;;;6.11;50.99
33697;BME280;20031;43.416;23.232;2024-01-16T12:35:59;99877.06;;;6.10;50.77
33697;BME280;20031;43.416;23.232;2024-01-16T12:38:26;99883.03;;;6.11;50.86
33697;BME280;20031;43.416;23.232;2024-01-16T12:40:52;99885.63;;;6.11;50.85
33697;BME280;20031;43.416;23.232;2024-01-16T12:43:18;99887.53;;;6.09;50.83
33697;BME280;20031;43.416;23.232;2024-01-16T12:45:44;99889.13;;;6.10;51.14
33697;BME280;20031;43.416;23.232;2024-01-16T12:48:10;99884.09;;;6.08;50.46
33697;BME280;20031;43.416;23.232;2024-01-16T12:50:36;99892.81;;;6.07;50.40
33697;BME280;20031;43.416;23.232;2024-01-16T12:53:09;99898.25;;;6.05;50.30
33697;BME280;20031;43.416;23.232;2024-01-16T12:55:39;99895.78;;;6.03;50.49
33697;BME280;20031;43.416;23.232;2024-01-16T12:58:34;99901.66;;;6.05;50.81
33697;BME280;20031;43.416;23.232;2024-01-16T13:01:29;99905.47;;;6.01;51.46
33697;BME280;20031;43.416;23.232;2024-01-16T13:03:56;99907.09;;;6.02;51.43
33697;BME280;20031;43.416;23.232;2024-01-16T13:06:22;99909.81;;;6.01;50.94
33697;BME280;20031;43.416;23.232;2024-01-16T13:08:49;99920.97;;;6.01;51.44
33697;BME280;20031;43.416;23.232;2024-01-16T13:11:15;99922.59;;;6.02;51.59